Ruth — 5BEG2 — position and weather

sailwx.info

Track history (hours):
 
Tides and Currents Weather Stations Pressure Air Temp Water Temp Dewpoint Dewpoint Depression Visibility Wind Speed Wind Dir Waves Ship Positions

Ruth

Last reported at 2018-May-27 07:29 UTC. Time now 2018-May-28 01:39 UTC.
Position N 35°54' W 005°51'.

Length 134 m; draft 8.4 m.

Type: Ship. MMSI: 212613000.

Date/timePositionNaut miles runAvg speedWind from/ knotsBaromVisibWave heightAir tempDewpointWater temp
2018-May-27 07:29N 35°54' W 005°51'612.3
2018-May-27 06:58N 35°57' W 005°44'511.3
2018-May-27 06:30N 35°58' W 005°38'5 9.5
2018-May-27 06:00N 35°59' W 005°32'4 8.2
2018-May-27 05:30N 36°01' W 005°27'5 8.9
2018-May-27 05:00N 36°04' W 005°24'3 6.7
2018-May-27 04:30N 36°08' W 005°25'0 0.0
2018-May-27 04:00N 36°08' W 005°25'0 0.0
2018-May-27 03:30N 36°08' W 005°25'0 0.0
2018-May-27 03:00N 36°08' W 005°25'0 0.0
2018-May-27 02:29N 36°08' W 005°25'0 0.0
2018-May-27 01:59N 36°08' W 005°25'0 0.0
2018-May-27 01:29N 36°08' W 005°25'0 0.0
2018-May-27 00:59N 36°08' W 005°25'0 0.0
2018-May-27 00:29N 36°08' W 005°25'0 0.0
2018-May-26 23:58N 36°08' W 005°25'0 0.0
2018-May-26 23:28N 36°08' W 005°25'0 0.0
2018-May-26 22:58N 36°08' W 005°25'0 0.0
2018-May-26 22:28N 36°08' W 005°25'0 0.0
2018-May-26 21:58N 36°08' W 005°25'0 0.0
2018-May-26 21:30N 36°08' W 005°25'0 0.0
2018-May-26 21:00N 36°08' W 005°25'0 0.0
2018-May-26 19:39N 36°08' W 005°25'0 0.0
2018-May-26 19:08N 36°08' W 005°25'0 0.0
2018-May-26 18:56N 36°08' W 005°25'0 0.0
2018-May-26 18:26N 36°08' W 005°25'0 0.0
2018-May-26 17:56N 36°08' W 005°25'0 0.0
2018-May-26 17:26N 36°08' W 005°25'0 0.0
2018-May-26 16:55N 36°08' W 005°25'0 0.0
2018-May-26 16:26N 36°08' W 005°25'1 2.2
2018-May-26 16:00N 36°08' W 005°25'510.7
2018-May-26 15:30N 36°03' W 005°23'611.6
2018-May-26 15:00N 35°58' W 005°27'612.7
2018-May-26 14:30N 35°56' W 005°34'712.9
2018-May-26 14:00N 35°55' W 005°42'613.0
2018-May-26 13:30N 35°55' W 005°50'20714.3
2018-May-25 23:03N 37°23' W 009°43'115.5
2018-May-25 23:00N 37°24' W 009°43'1715.9
2018-May-25 21:56N 37°40' W 009°49'1515.9
2018-May-25 20:58N 37°55' W 009°53'815.8
2018-May-25 20:29N 38°03' W 009°55'715.5
2018-May-25 20:01N 38°10' W 009°57'816.1
2018-May-25 19:31N 38°18' W 009°59'816.0
2018-May-25 19:01N 38°26' W 010°01'816.0
2018-May-25 18:30N 38°33' W 010°04'815.9
2018-May-25 18:00N 38°41' W 010°07'815.7
2018-May-25 17:30N 38°49' W 010°07'815.6
2018-May-25 17:00N 38°57' W 010°07'815.9
2018-May-25 16:31N 39°05' W 010°07'815.8
2018-May-25 16:00N 39°12' W 010°08'815.8
2018-May-25 15:31N 39°20' W 010°08'815.4
2018-May-25 15:00N 39°28' W 010°08'1715.3
2018-May-25 13:55N 39°45' W 010°06'65115.4
2018-May-23 19:35N 49°38' W 003°51'917.7
2018-May-23 19:05N 49°42' W 003°39'117.7
2018-May-23 19:00N 49°43' W 003°37'917.7
2018-May-23 18:30N 49°47' W 003°25'1017.3
2018-May-23 17:57N 49°52' W 003°12'817.1
2018-May-23 17:30N 49°55' W 003°02'816.5
2018-May-23 17:00N 49°59' W 002°50'816.2
2018-May-23 16:30N 50°00' W 002°38'815.6
2018-May-23 16:00N 50°02' W 002°26'815.3
2018-May-23 15:30N 50°00' W 002°14'814.9
2018-May-23 14:58N 49°58' W 002°02'714.5
2018-May-23 14:31N 49°56' W 001°52'714.3
2018-May-23 14:01N 49°55' W 001°41'714.5
2018-May-23 13:30N 49°53' W 001°31'714.9
2018-May-23 13:01N 49°50' W 001°20'714.6
2018-May-23 12:30N 49°47' W 001°09'815.5
2018-May-23 12:01N 49°45' W 000°58'916.4
2018-May-23 11:29N 49°41' W 000°46'917.0
2018-May-23 10:57N 49°38' W 000°33'816.9
2018-May-23 10:29N 49°34' W 000°22'817.3
2018-May-23 10:00N 49°32' W 000°10'815.1
2018-May-23 09:30N 49°30' E 000°01'510.8
2018-May-23 09:00N 49°28' E 000°09'0 0.7
2018-May-23 08:29N 49°29' E 000°10'0 0.0
2018-May-23 07:58N 49°29' E 000°10'0 0.0
2018-May-23 07:28N 49°29' E 000°10'0 0.0
2018-May-23 06:58N 49°29' E 000°10'0 0.0
2018-May-23 06:28N 49°29' E 000°10'0 0.0
2018-May-23 05:58N 49°29' E 000°10'0 0.0
2018-May-23 05:30N 49°29' E 000°10'0 0.0
2018-May-23 05:00N 49°29' E 000°10'0 0.0
2018-May-23 04:30N 49°29' E 000°10'0 0.0
2018-May-23 04:00N 49°29' E 000°10'1 1.8
2018-May-23 03:30N 49°28' E 000°09'510.9
2018-May-23 03:00N 49°30' E 000°01'3 5.7
2018-May-23 02:31N 49°27' E 000°02'713.6
2018-May-23 02:00N 49°26' E 000°12'510.7
2018-May-23 01:30N 49°26' E 000°21'611.0
2018-May-23 01:00N 49°29' E 000°28'3 6.5
2018-May-23 00:30N 49°27' E 000°33'4 8.2
2018-May-23 00:00N 49°27' E 000°39'510.2
2018-May-22 23:30N 49°31' E 000°43'510.6
2018-May-22 23:00N 49°28' E 000°49'4 7.9
2018-May-22 22:30N 49°24' E 000°52'510.2
2018-May-22 22:00N 49°29' E 000°54'510.8
2018-May-22 21:30N 49°24' E 000°55'3 6.8
2018-May-22 21:00N 49°21' E 000°59'0 0.0
2018-May-22 20:29N 49°21' E 000°59'0 0.0
2018-May-22 19:59N 49°21' E 000°59'0 0.0
2018-May-22 19:29N 49°21' E 000°59'0 0.0
2018-May-22 18:58N 49°21' E 000°59'0 0.0
2018-May-22 18:28N 49°21' E 000°59'0 0.0
2018-May-22 17:58N 49°21' E 000°59'0 0.0
2018-May-22 17:28N 49°21' E 000°59'0 0.0
2018-May-22 17:00N 49°21' E 000°59'0 0.0
2018-May-22 16:30N 49°21' E 000°59'0 0.0
2018-May-22 16:00N 49°21' E 000°59'0 0.0
2018-May-22 15:30N 49°21' E 000°59'0 0.0
2018-May-22 14:54N 49°21' E 000°59'0 0.0
2018-May-22 14:26N 49°21' E 000°59'0 0.0
2018-May-22 13:59N 49°21' E 000°59'0 0.0
2018-May-22 13:26N 49°21' E 000°59'0 0.0
2018-May-22 12:59N 49°21' E 000°59'0 0.0
2018-May-22 12:29N 49°21' E 000°59'0 0.0
2018-May-22 11:58N 49°21' E 000°59'0 0.0
2018-May-22 11:25N 49°21' E 000°59'0 0.0
2018-May-22 10:55N 49°21' E 000°59'0 0.0
2018-May-22 10:25N 49°21' E 000°59'0 0.0
2018-May-22 10:00N 49°21' E 000°59'0 0.0
2018-May-22 09:30N 49°21' E 000°59'0 0.0
2018-May-22 09:00N 49°21' E 000°59'0 0.0
2018-May-22 08:30N 49°21' E 000°59'0 0.0
2018-May-22 08:00N 49°21' E 000°59'0 0.0
2018-May-22 07:29N 49°21' E 000°59'0 0.0
2018-May-22 06:59N 49°21' E 000°59'0 0.0
2018-May-22 06:29N 49°21' E 000°59'0 0.0
2018-May-22 05:59N 49°21' E 000°59'0 0.0
2018-May-22 05:28N 49°21' E 000°59'0 0.0
2018-May-22 04:58N 49°21' E 000°59'0 0.0
2018-May-22 04:28N 49°21' E 000°59'0 0.0
2018-May-22 03:58N 49°21' E 000°59'0 0.0
2018-May-22 03:28N 49°21' E 000°59'0 0.0
2018-May-22 02:57N 49°21' E 000°59'0 0.0
2018-May-22 02:30N 49°21' E 000°59'0 0.0
2018-May-22 02:00N 49°21' E 000°59'0 0.0
2018-May-22 01:27N 49°21' E 000°59'0 0.0
2018-May-22 01:00N 49°21' E 000°59'0 0.0
2018-May-22 00:26N 49°21' E 000°59'0 0.0
2018-May-21 23:56N 49°21' E 000°59'0 0.0
2018-May-21 23:26N 49°21' E 000°59'0 0.0
2018-May-21 22:56N 49°21' E 000°59'0 0.0
2018-May-21 22:28N 49°21' E 000°59'0 0.0
2018-May-21 21:58N 49°21' E 000°59'0 0.0
2018-May-21 21:28N 49°21' E 000°59'0 0.0
2018-May-21 20:58N 49°21' E 000°59'0 0.0
2018-May-21 20:28N 49°21' E 000°59'0 0.0
2018-May-21 20:00N 49°21' E 000°59'0 0.0
2018-May-21 19:30N 49°21' E 000°59'0 0.0
2018-May-21 19:00N 49°21' E 000°59'0 0.0
2018-May-21 18:30N 49°21' E 000°59'0 0.0
2018-May-21 18:00N 49°21' E 000°59'0 0.0
2018-May-21 17:29N 49°21' E 000°59'0 0.0
2018-May-21 16:56N 49°21' E 000°59'0 0.0
2018-May-21 16:29N 49°21' E 000°59'0 0.0
2018-May-21 15:59N 49°21' E 000°59'0 0.0
2018-May-21 15:28N 49°21' E 000°59'0 0.0
2018-May-21 14:58N 49°21' E 000°59'0 0.0
2018-May-21 14:25N 49°21' E 000°59'0 0.0
2018-May-21 13:58N 49°21' E 000°59'0 0.0
2018-May-21 13:28N 49°21' E 000°59'0 0.0
2018-May-21 12:57N 49°21' E 000°59'0 0.0
2018-May-21 12:27N 49°21' E 000°59'0 0.0
2018-May-21 12:00N 49°21' E 000°59'0 0.0
2018-May-21 11:30N 49°21' E 000°59'0 0.0
2018-May-21 11:00N 49°21' E 000°59'0 0.0
2018-May-21 10:26N 49°21' E 000°59'0 0.0
2018-May-21 09:56N 49°21' E 000°59'0 0.0
2018-May-21 09:29N 49°21' E 000°59'0 0.0
2018-May-21 08:56N 49°21' E 000°59'0 0.0
2018-May-21 08:22N 49°21' E 000°59'0 0.0
2018-May-21 07:58N 49°21' E 000°59'0 0.0
2018-May-21 07:28N 49°21' E 000°59'0 0.0
2018-May-21 06:58N 49°21' E 000°59'0 0.0
2018-May-21 06:28N 49°21' E 000°59'0 0.0
2018-May-21 06:00N 49°21' E 000°59'0 0.0
2018-May-21 05:30N 49°21' E 000°59'0 0.0
2018-May-21 05:00N 49°21' E 000°59'0 0.0
2018-May-21 04:30N 49°21' E 000°59'0 0.0
2018-May-21 03:59N 49°21' E 000°59'0 0.0
2018-May-21 03:29N 49°21' E 000°59'0 0.4
2018-May-21 03:01N 49°21' E 000°59'3 5.8
2018-May-21 02:30N 49°23' E 000°55'612.8
2018-May-21 02:01N 49°29' E 000°55'510.7
2018-May-21 01:30N 49°24' E 000°52'5 9.2
2018-May-21 01:00N 49°28' E 000°49'510.3
2018-May-21 00:30N 49°31' E 000°43'613.0
2018-May-21 00:01N 49°26' E 000°37'612.0
2018-May-20 23:31N 49°29' E 000°29'714.7
2018-May-20 23:01N 49°26' E 000°19'815.4
2018-May-20 22:31N 49°26' E 000°07'713.4
2018-May-20 22:01N 49°28' W 000°02'510.0
2018-May-20 21:31N 49°32' W 000°08'611.1
2018-May-20 21:00N 49°37' W 000°10'714.3
2018-May-20 20:30N 49°44' W 000°09'714.4
2018-May-20 20:00N 49°51' W 000°08'714.3
2018-May-20 19:30N 49°58' W 000°07'714.4
2018-May-20 19:00N 50°05' W 000°06'714.4
2018-May-20 18:30N 50°13' W 000°05'714.3
2018-May-20 18:00N 50°20' W 000°04'714.3
2018-May-20 17:30N 50°27' W 000°02'714.1
2018-May-20 17:00N 50°30' E 000°08'714.8
2018-May-20 16:30N 50°31' E 000°19'714.4
2018-May-20 16:00N 50°33' E 000°30'713.7
2018-May-20 15:30N 50°36' E 000°40'713.5
2018-May-20 15:00N 50°39' E 000°49'713.2
2018-May-20 14:30N 50°43' E 000°58'713.1
2018-May-20 14:00N 50°47' E 001°06'713.1
2018-May-20 13:30N 50°51' E 001°15'712.7
2018-May-20 12:58N 50°56' E 001°21'715.2
2018-May-20 12:30N 51°02' E 001°28'816.8
2018-May-20 12:00N 51°08' E 001°37'816.8
2018-May-20 11:30N 51°14' E 001°46'816.6
2018-May-20 11:01N 51°21' E 001°54'713.5
2018-May-20 10:30N 51°24' E 002°04'814.6
2018-May-20 09:58N 51°21' E 002°16'715.0
2018-May-20 09:30N 51°22' E 002°27'815.0
2018-May-20 08:58N 51°22' E 002°39'613.7
2018-May-20 08:30N 51°22' E 002°50'815.2
2018-May-20 08:00N 51°24' E 003°01'815.5
2018-May-20 07:30N 51°25' E 003°14'2313.1
2018-May-20 05:43N 51°21' E 003°51'413.2
2018-May-20 05:24N 51°23' E 003°56'410.5
2018-May-20 05:00N 51°26' E 004°01'5 9.8
2018-May-20 04:30N 51°22' E 004°06'4 8.9
2018-May-20 04:00N 51°23' E 004°13'3 6.5
2018-May-20 03:28N 51°20' E 004°17'0 0.0
2018-May-20 03:00N 51°20' E 004°17'0 0.0
2018-May-20 02:30N 51°20' E 004°17'0 0.0
2018-May-20 01:48N 51°20' E 004°17'0 0.0
2018-May-20 01:30N 51°20' E 004°17'0 0.0
2018-May-20 01:00N 51°20' E 004°17'0 0.0
2018-May-20 00:30N 51°20' E 004°17'0 0.0
2018-May-20 00:00N 51°20' E 004°17'0 0.0
2018-May-19 23:30N 51°20' E 004°17'0 0.0
2018-May-19 23:00N 51°20' E 004°17'0 0.0
2018-May-19 22:31N 51°20' E 004°17'0 0.0
2018-May-19 21:59N 51°20' E 004°17'0 0.0
2018-May-19 21:30N 51°20' E 004°17'0 0.0
2018-May-19 20:58N 51°20' E 004°17'0 0.0
2018-May-19 20:30N 51°20' E 004°17'0 0.0
2018-May-19 20:00N 51°20' E 004°17'0 0.0
2018-May-19 19:30N 51°20' E 004°17'0 0.0
2018-May-19 19:00N 51°20' E 004°17'0 0.0
2018-May-19 18:30N 51°20' E 004°17'0 0.3
2018-May-19 18:00N 51°20' E 004°16'510.1
2018-May-19 17:30N 51°23' E 004°09'714.0
2018-May-19 17:00N 51°26' E 003°59'816.2
2018-May-19 16:30N 51°21' E 003°49'814.8
2018-May-19 15:58N 51°25' E 003°38'610.9
2018-May-19 15:27N 51°28' E 003°31'714.4
2018-May-19 14:59N 51°34' E 003°25'815.5
2018-May-19 14:30N 51°40' E 003°19'612.4
2018-May-19 13:59N 51°46' E 003°15'3 6.3
2018-May-19 13:28N 51°49' E 003°16'1211.5
2018-May-19 12:25N 52°01' E 003°19'511.1
2018-May-19 12:00N 52°02' E 003°27'611.5
2018-May-19 11:29N 52°03' E 003°36'511.5
2018-May-19 11:01N 52°03' E 003°45'611.2
2018-May-19 10:30N 52°02' E 003°54'611.5
2018-May-19 10:00N 51°60' E 004°03'713.8
2018-May-19 09:30N 51°56' E 004°12'511.0
2018-May-19 09:01N 51°54' E 004°20'3 6.3
2018-May-19 08:31N 51°53' E 004°25'0 0.1
2018-May-19 07:58N 51°53' E 004°25'0 0.0
2018-May-19 07:28N 51°53' E 004°25'0 0.0
2018-May-19 06:58N 51°53' E 004°25'0 0.0
2018-May-19 06:30N 51°53' E 004°25'0 0.0
2018-May-19 06:00N 51°53' E 004°25'0 0.0
2018-May-19 05:30N 51°53' E 004°25'0 0.0
2018-May-19 05:00N 51°53' E 004°25'1 1.6
2018-May-19 04:30N 51°53' E 004°24'1 2.4
2018-May-19 04:00N 51°54' E 004°26'0 0.0
2018-May-19 03:29N 51°54' E 004°26'0 0.0
2018-May-19 02:59N 51°54' E 004°26'0 0.0
2018-May-19 02:29N 51°54' E 004°26'0 0.0
2018-May-19 01:59N 51°54' E 004°26'0 0.0
2018-May-19 01:28N 51°54' E 004°26'0 0.0
2018-May-19 00:58N 51°54' E 004°26'0 0.0
2018-May-19 00:28N 51°54' E 004°26'0 0.0
2018-May-18 23:58N 51°54' E 004°26'0 0.0
2018-May-18 23:28N 51°54' E 004°26'0 0.0
2018-May-18 23:00N 51°54' E 004°26'0 0.0
2018-May-18 22:30N 51°54' E 004°26'0 0.0
2018-May-18 22:00N 51°54' E 004°26'0 0.0
2018-May-18 21:30N 51°54' E 004°26'0 0.0
2018-May-18 20:59N 51°54' E 004°26'0 0.0
2018-May-18 20:29N 51°54' E 004°26'0 0.0
2018-May-18 19:59N 51°54' E 004°26'0 0.0
2018-May-18 19:29N 51°54' E 004°26'0 0.0
2018-May-18 18:59N 51°54' E 004°26'0 0.0
2018-May-18 18:28N 51°54' E 004°26'0 0.0
2018-May-18 17:58N 51°54' E 004°26'0 0.0
2018-May-18 17:28N 51°54' E 004°26'0 0.0
2018-May-18 16:58N 51°54' E 004°26'0 0.0
2018-May-18 16:31N 51°54' E 004°26'0 0.0
2018-May-18 16:00N 51°54' E 004°26'0 0.0
2018-May-18 15:30N 51°54' E 004°26'0 0.0
2018-May-18 15:00N 51°54' E 004°26'0 0.0
2018-May-18 14:30N 51°54' E 004°26'0 0.0
2018-May-18 13:59N 51°54' E 004°26'0 0.0
2018-May-18 13:30N 51°54' E 004°26'0 1.0
2018-May-18 13:00N 51°54' E 004°26'4 8.5
2018-May-18 12:30N 51°54' E 004°19'611.3
2018-May-18 12:00N 51°57' E 004°11'713.6
2018-May-18 11:30N 51°60' E 004°01'714.1
2018-May-18 11:00N 51°59' E 003°50'2 4.1
2018-May-18 10:30N 51°57' E 003°48'0 0.2
2018-May-18 10:00N 51°57' E 003°48'0 0.0
2018-May-18 09:30N 51°57' E 003°48'0 0.0
2018-May-18 08:57N 51°57' E 003°48'0 0.1
2018-May-18 08:26N 51°57' E 003°48'0 0.0
2018-May-18 07:53N 51°57' E 003°48'0 0.0
2018-May-18 07:29N 51°57' E 003°48'0 0.0
2018-May-18 06:59N 51°57' E 003°48'0 0.1
2018-May-18 06:16N 51°57' E 003°48'0 0.0
2018-May-18 05:49N 51°57' E 003°48'0 0.0
2018-May-18 05:10N 51°57' E 003°48'0 0.0
2018-May-18 04:58N 51°57' E 003°48'0 0.0
2018-May-18 04:28N 51°57' E 003°48'0 0.0
2018-May-18 03:57N 51°57' E 003°48'0 0.0
2018-May-18 03:30N 51°57' E 003°48'0 0.1
2018-May-18 03:00N 51°57' E 003°48'0 0.1
2018-May-18 02:30N 51°57' E 003°48'0 0.1
2018-May-18 01:54N 51°57' E 003°48'0 0.0
2018-May-18 01:20N 51°57' E 003°48'0 0.0
2018-May-18 00:56N 51°57' E 003°48'0 0.0
2018-May-18 00:16N 51°57' E 003°48'0 0.0
2018-May-17 23:58N 51°57' E 003°48'0 0.0
2018-May-17 23:28N 51°57' E 003°48'0 0.0
2018-May-17 23:00N 51°57' E 003°48'0 0.0
2018-May-17 22:18N 51°57' E 003°48'0 0.0
2018-May-17 22:00N 51°57' E 003°48'0 0.0
2018-May-17 21:30N 51°57' E 003°48'0 0.0
2018-May-17 21:00N 51°57' E 003°48'0 0.0
2018-May-17 20:29N 51°57' E 003°48'0 0.0
2018-May-17 19:56N 51°57' E 003°48'0 0.0
2018-May-17 19:26N 51°57' E 003°48'0 0.0
2018-May-17 18:44N 51°57' E 003°48'0 0.0
2018-May-17 18:22N 51°57' E 003°48'0 0.0
2018-May-17 17:58N 51°57' E 003°48'0 0.1
2018-May-17 17:28N 51°57' E 003°48'0 0.1
2018-May-17 16:55N 51°57' E 003°48'0 0.1
2018-May-17 16:28N 51°57' E 003°48'0 0.0
2018-May-17 15:57N 51°57' E 003°48'0 0.0
2018-May-17 15:30N 51°57' E 003°48'0 0.0
2018-May-17 14:51N 51°57' E 003°48'0 0.2
2018-May-17 14:30N 51°57' E 003°48'0 0.1
2018-May-17 14:00N 51°57' E 003°48'0 0.0
2018-May-17 13:26N 51°57' E 003°48'0 0.0
2018-May-17 12:59N 51°57' E 003°48'0 0.0
2018-May-17 12:29N 51°57' E 003°48'0 0.0
2018-May-17 11:59N 51°57' E 003°48'0 0.0
2018-May-17 11:28N 51°57' E 003°48'0 0.0
2018-May-17 10:58N 51°57' E 003°48'0 0.0
2018-May-17 10:25N 51°57' E 003°48'0 0.0
2018-May-17 09:58N 51°57' E 003°48'0 0.0
2018-May-17 09:25N 51°57' E 003°48'0 0.0
2018-May-17 08:54N 51°57' E 003°48'0 0.0
2018-May-17 08:27N 51°57' E 003°48'0 0.0
2018-May-17 08:00N 51°57' E 003°48'  
Track history (hours):
 
Tides and Currents Weather Stations Pressure Air Temp Water Temp Dewpoint Dewpoint Depression Visibility Wind Speed Wind Dir Waves Ship Positions

Ruth

Last reported at 2018-May-27 07:29 UTC. Time now 2018-May-28 01:39 UTC.
Position N 35°54' W 005°51'.

Length 134 m; draft 8.4 m.

Type: Ship. MMSI: 212613000.

Date/timePositionNaut miles runAvg speedWind from/ knotsBaromVisibWave heightAir tempDewpointWater temp
2018-May-27 07:29N 35°54' W 005°51'612.3
2018-May-27 06:58N 35°57' W 005°44'511.3
2018-May-27 06:30N 35°58' W 005°38'5 9.5
2018-May-27 06:00N 35°59' W 005°32'4 8.2
2018-May-27 05:30N 36°01' W 005°27'5 8.9
2018-May-27 05:00N 36°04' W 005°24'3 6.7
2018-May-27 04:30N 36°08' W 005°25'0 0.0
2018-May-27 04:00N 36°08' W 005°25'0 0.0
2018-May-27 03:30N 36°08' W 005°25'0 0.0
2018-May-27 03:00N 36°08' W 005°25'0 0.0
2018-May-27 02:29N 36°08' W 005°25'0 0.0
2018-May-27 01:59N 36°08' W 005°25'0 0.0
2018-May-27 01:29N 36°08' W 005°25'0 0.0
2018-May-27 00:59N 36°08' W 005°25'0 0.0
2018-May-27 00:29N 36°08' W 005°25'0 0.0
2018-May-26 23:58N 36°08' W 005°25'0 0.0
2018-May-26 23:28N 36°08' W 005°25'0 0.0
2018-May-26 22:58N 36°08' W 005°25'0 0.0
2018-May-26 22:28N 36°08' W 005°25'0 0.0
2018-May-26 21:58N 36°08' W 005°25'0 0.0
2018-May-26 21:30N 36°08' W 005°25'0 0.0
2018-May-26 21:00N 36°08' W 005°25'0 0.0
2018-May-26 19:39N 36°08' W 005°25'0 0.0
2018-May-26 19:08N 36°08' W 005°25'0 0.0
2018-May-26 18:56N 36°08' W 005°25'0 0.0
2018-May-26 18:26N 36°08' W 005°25'0 0.0
2018-May-26 17:56N 36°08' W 005°25'0 0.0
2018-May-26 17:26N 36°08' W 005°25'0 0.0
2018-May-26 16:55N 36°08' W 005°25'0 0.0
2018-May-26 16:26N 36°08' W 005°25'1 2.2
2018-May-26 16:00N 36°08' W 005°25'510.7
2018-May-26 15:30N 36°03' W 005°23'611.6
2018-May-26 15:00N 35°58' W 005°27'612.7
2018-May-26 14:30N 35°56' W 005°34'712.9
2018-May-26 14:00N 35°55' W 005°42'613.0
2018-May-26 13:30N 35°55' W 005°50'20714.3
2018-May-25 23:03N 37°23' W 009°43'115.5
2018-May-25 23:00N 37°24' W 009°43'1715.9
2018-May-25 21:56N 37°40' W 009°49'1515.9
2018-May-25 20:58N 37°55' W 009°53'815.8
2018-May-25 20:29N 38°03' W 009°55'715.5
2018-May-25 20:01N 38°10' W 009°57'816.1
2018-May-25 19:31N 38°18' W 009°59'816.0
2018-May-25 19:01N 38°26' W 010°01'816.0
2018-May-25 18:30N 38°33' W 010°04'815.9
2018-May-25 18:00N 38°41' W 010°07'815.7
2018-May-25 17:30N 38°49' W 010°07'815.6
2018-May-25 17:00N 38°57' W 010°07'815.9
2018-May-25 16:31N 39°05' W 010°07'815.8
2018-May-25 16:00N 39°12' W 010°08'815.8
2018-May-25 15:31N 39°20' W 010°08'815.4
2018-May-25 15:00N 39°28' W 010°08'1715.3
2018-May-25 13:55N 39°45' W 010°06'65115.4
2018-May-23 19:35N 49°38' W 003°51'917.7
2018-May-23 19:05N 49°42' W 003°39'117.7
2018-May-23 19:00N 49°43' W 003°37'917.7
2018-May-23 18:30N 49°47' W 003°25'1017.3
2018-May-23 17:57N 49°52' W 003°12'817.1
2018-May-23 17:30N 49°55' W 003°02'816.5
2018-May-23 17:00N 49°59' W 002°50'816.2
2018-May-23 16:30N 50°00' W 002°38'815.6
2018-May-23 16:00N 50°02' W 002°26'815.3
2018-May-23 15:30N 50°00' W 002°14'814.9
2018-May-23 14:58N 49°58' W 002°02'714.5
2018-May-23 14:31N 49°56' W 001°52'714.3
2018-May-23 14:01N 49°55' W 001°41'714.5
2018-May-23 13:30N 49°53' W 001°31'714.9
2018-May-23 13:01N 49°50' W 001°20'714.6
2018-May-23 12:30N 49°47' W 001°09'815.5
2018-May-23 12:01N 49°45' W 000°58'916.4
2018-May-23 11:29N 49°41' W 000°46'917.0
2018-May-23 10:57N 49°38' W 000°33'816.9
2018-May-23 10:29N 49°34' W 000°22'817.3
2018-May-23 10:00N 49°32' W 000°10'815.1
2018-May-23 09:30N 49°30' E 000°01'510.8
2018-May-23 09:00N 49°28' E 000°09'0 0.7
2018-May-23 08:29N 49°29' E 000°10'0 0.0
2018-May-23 07:58N 49°29' E 000°10'0 0.0
2018-May-23 07:28N 49°29' E 000°10'0 0.0
2018-May-23 06:58N 49°29' E 000°10'0 0.0
2018-May-23 06:28N 49°29' E 000°10'0 0.0
2018-May-23 05:58N 49°29' E 000°10'0 0.0
2018-May-23 05:30N 49°29' E 000°10'0 0.0
2018-May-23 05:00N 49°29' E 000°10'0 0.0
2018-May-23 04:30N 49°29' E 000°10'0 0.0
2018-May-23 04:00N 49°29' E 000°10'1 1.8
2018-May-23 03:30N 49°28' E 000°09'510.9
2018-May-23 03:00N 49°30' E 000°01'3 5.7
2018-May-23 02:31N 49°27' E 000°02'713.6
2018-May-23 02:00N 49°26' E 000°12'510.7
2018-May-23 01:30N 49°26' E 000°21'611.0
2018-May-23 01:00N 49°29' E 000°28'3 6.5
2018-May-23 00:30N 49°27' E 000°33'4 8.2
2018-May-23 00:00N 49°27' E 000°39'510.2
2018-May-22 23:30N 49°31' E 000°43'510.6
2018-May-22 23:00N 49°28' E 000°49'4 7.9
2018-May-22 22:30N 49°24' E 000°52'510.2
2018-May-22 22:00N 49°29' E 000°54'510.8
2018-May-22 21:30N 49°24' E 000°55'3 6.8
2018-May-22 21:00N 49°21' E 000°59'0 0.0
2018-May-22 20:29N 49°21' E 000°59'0 0.0
2018-May-22 19:59N 49°21' E 000°59'0 0.0
2018-May-22 19:29N 49°21' E 000°59'0 0.0
2018-May-22 18:58N 49°21' E 000°59'0 0.0
2018-May-22 18:28N 49°21' E 000°59'0 0.0
2018-May-22 17:58N 49°21' E 000°59'0 0.0
2018-May-22 17:28N 49°21' E 000°59'0 0.0
2018-May-22 17:00N 49°21' E 000°59'0 0.0
2018-May-22 16:30N 49°21' E 000°59'0 0.0
2018-May-22 16:00N 49°21' E 000°59'0 0.0
2018-May-22 15:30N 49°21' E 000°59'0 0.0
2018-May-22 14:54N 49°21' E 000°59'0 0.0
2018-May-22 14:26N 49°21' E 000°59'0 0.0
2018-May-22 13:59N 49°21' E 000°59'0 0.0
2018-May-22 13:26N 49°21' E 000°59'0 0.0
2018-May-22 12:59N 49°21' E 000°59'0 0.0
2018-May-22 12:29N 49°21' E 000°59'0 0.0
2018-May-22 11:58N 49°21' E 000°59'0 0.0
2018-May-22 11:25N 49°21' E 000°59'0 0.0
2018-May-22 10:55N 49°21' E 000°59'0 0.0
2018-May-22 10:25N 49°21' E 000°59'0 0.0
2018-May-22 10:00N 49°21' E 000°59'0 0.0
2018-May-22 09:30N 49°21' E 000°59'0 0.0
2018-May-22 09:00N 49°21' E 000°59'0 0.0
2018-May-22 08:30N 49°21' E 000°59'0 0.0
2018-May-22 08:00N 49°21' E 000°59'0 0.0
2018-May-22 07:29N 49°21' E 000°59'0 0.0
2018-May-22 06:59N 49°21' E 000°59'0 0.0
2018-May-22 06:29N 49°21' E 000°59'0 0.0
2018-May-22 05:59N 49°21' E 000°59'0 0.0
2018-May-22 05:28N 49°21' E 000°59'0 0.0
2018-May-22 04:58N 49°21' E 000°59'0 0.0
2018-May-22 04:28N 49°21' E 000°59'0 0.0
2018-May-22 03:58N 49°21' E 000°59'0 0.0
2018-May-22 03:28N 49°21' E 000°59'0 0.0
2018-May-22 02:57N 49°21' E 000°59'0 0.0
2018-May-22 02:30N 49°21' E 000°59'0 0.0
2018-May-22 02:00N 49°21' E 000°59'0 0.0
2018-May-22 01:27N 49°21' E 000°59'0 0.0
2018-May-22 01:00N 49°21' E 000°59'0 0.0
2018-May-22 00:26N 49°21' E 000°59'0 0.0
2018-May-21 23:56N 49°21' E 000°59'0 0.0
2018-May-21 23:26N 49°21' E 000°59'0 0.0
2018-May-21 22:56N 49°21' E 000°59'0 0.0
2018-May-21 22:28N 49°21' E 000°59'0 0.0
2018-May-21 21:58N 49°21' E 000°59'0 0.0
2018-May-21 21:28N 49°21' E 000°59'0 0.0
2018-May-21 20:58N 49°21' E 000°59'0 0.0
2018-May-21 20:28N 49°21' E 000°59'0 0.0
2018-May-21 20:00N 49°21' E 000°59'0 0.0
2018-May-21 19:30N 49°21' E 000°59'0 0.0
2018-May-21 19:00N 49°21' E 000°59'0 0.0
2018-May-21 18:30N 49°21' E 000°59'0 0.0
2018-May-21 18:00N 49°21' E 000°59'0 0.0
2018-May-21 17:29N 49°21' E 000°59'0 0.0
2018-May-21 16:56N 49°21' E 000°59'0 0.0
2018-May-21 16:29N 49°21' E 000°59'0 0.0
2018-May-21 15:59N 49°21' E 000°59'0 0.0
2018-May-21 15:28N 49°21' E 000°59'0 0.0
2018-May-21 14:58N 49°21' E 000°59'0 0.0
2018-May-21 14:25N 49°21' E 000°59'0 0.0
2018-May-21 13:58N 49°21' E 000°59'0 0.0
2018-May-21 13:28N 49°21' E 000°59'0 0.0
2018-May-21 12:57N 49°21' E 000°59'0 0.0
2018-May-21 12:27N 49°21' E 000°59'0 0.0
2018-May-21 12:00N 49°21' E 000°59'0 0.0
2018-May-21 11:30N 49°21' E 000°59'0 0.0
2018-May-21 11:00N 49°21' E 000°59'0 0.0
2018-May-21 10:26N 49°21' E 000°59'0 0.0
2018-May-21 09:56N 49°21' E 000°59'0 0.0
2018-May-21 09:29N 49°21' E 000°59'0 0.0
2018-May-21 08:56N 49°21' E 000°59'0 0.0
2018-May-21 08:22N 49°21' E 000°59'0 0.0
2018-May-21 07:58N 49°21' E 000°59'0 0.0
2018-May-21 07:28N 49°21' E 000°59'0 0.0
2018-May-21 06:58N 49°21' E 000°59'0 0.0
2018-May-21 06:28N 49°21' E 000°59'0 0.0
2018-May-21 06:00N 49°21' E 000°59'0 0.0
2018-May-21 05:30N 49°21' E 000°59'0 0.0
2018-May-21 05:00N 49°21' E 000°59'0 0.0
2018-May-21 04:30N 49°21' E 000°59'0 0.0
2018-May-21 03:59N 49°21' E 000°59'0 0.0
2018-May-21 03:29N 49°21' E 000°59'0 0.4
2018-May-21 03:01N 49°21' E 000°59'3 5.8
2018-May-21 02:30N 49°23' E 000°55'612.8
2018-May-21 02:01N 49°29' E 000°55'510.7
2018-May-21 01:30N 49°24' E 000°52'5 9.2
2018-May-21 01:00N 49°28' E 000°49'510.3
2018-May-21 00:30N 49°31' E 000°43'613.0
2018-May-21 00:01N 49°26' E 000°37'612.0
2018-May-20 23:31N 49°29' E 000°29'714.7
2018-May-20 23:01N 49°26' E 000°19'815.4
2018-May-20 22:31N 49°26' E 000°07'713.4
2018-May-20 22:01N 49°28' W 000°02'510.0
2018-May-20 21:31N 49°32' W 000°08'611.1
2018-May-20 21:00N 49°37' W 000°10'714.3
2018-May-20 20:30N 49°44' W 000°09'714.4
2018-May-20 20:00N 49°51' W 000°08'714.3
2018-May-20 19:30N 49°58' W 000°07'714.4
2018-May-20 19:00N 50°05' W 000°06'714.4
2018-May-20 18:30N 50°13' W 000°05'714.3
2018-May-20 18:00N 50°20' W 000°04'714.3
2018-May-20 17:30N 50°27' W 000°02'714.1
2018-May-20 17:00N 50°30' E 000°08'714.8
2018-May-20 16:30N 50°31' E 000°19'714.4
2018-May-20 16:00N 50°33' E 000°30'713.7
2018-May-20 15:30N 50°36' E 000°40'713.5
2018-May-20 15:00N 50°39' E 000°49'713.2
2018-May-20 14:30N 50°43' E 000°58'713.1
2018-May-20 14:00N 50°47' E 001°06'713.1
2018-May-20 13:30N 50°51' E 001°15'712.7
2018-May-20 12:58N 50°56' E 001°21'715.2
2018-May-20 12:30N 51°02' E 001°28'816.8
2018-May-20 12:00N 51°08' E 001°37'816.8
2018-May-20 11:30N 51°14' E 001°46'816.6
2018-May-20 11:01N 51°21' E 001°54'713.5
2018-May-20 10:30N 51°24' E 002°04'814.6
2018-May-20 09:58N 51°21' E 002°16'715.0
2018-May-20 09:30N 51°22' E 002°27'815.0
2018-May-20 08:58N 51°22' E 002°39'613.7
2018-May-20 08:30N 51°22' E 002°50'815.2
2018-May-20 08:00N 51°24' E 003°01'815.5
2018-May-20 07:30N 51°25' E 003°14'2313.1
2018-May-20 05:43N 51°21' E 003°51'413.2
2018-May-20 05:24N 51°23' E 003°56'410.5
2018-May-20 05:00N 51°26' E 004°01'5 9.8
2018-May-20 04:30N 51°22' E 004°06'4 8.9
2018-May-20 04:00N 51°23' E 004°13'3 6.5
2018-May-20 03:28N 51°20' E 004°17'0 0.0
2018-May-20 03:00N 51°20' E 004°17'0 0.0
2018-May-20 02:30N 51°20' E 004°17'0 0.0
2018-May-20 01:48N 51°20' E 004°17'0 0.0
2018-May-20 01:30N 51°20' E 004°17'0 0.0
2018-May-20 01:00N 51°20' E 004°17'0 0.0
2018-May-20 00:30N 51°20' E 004°17'0 0.0
2018-May-20 00:00N 51°20' E 004°17'0 0.0
2018-May-19 23:30N 51°20' E 004°17'0 0.0
2018-May-19 23:00N 51°20' E 004°17'0 0.0
2018-May-19 22:31N 51°20' E 004°17'0 0.0
2018-May-19 21:59N 51°20' E 004°17'0 0.0
2018-May-19 21:30N 51°20' E 004°17'0 0.0
2018-May-19 20:58N 51°20' E 004°17'0 0.0
2018-May-19 20:30N 51°20' E 004°17'0 0.0
2018-May-19 20:00N 51°20' E 004°17'0 0.0
2018-May-19 19:30N 51°20' E 004°17'0 0.0
2018-May-19 19:00N 51°20' E 004°17'0 0.0
2018-May-19 18:30N 51°20' E 004°17'0 0.3
2018-May-19 18:00N 51°20' E 004°16'510.1
2018-May-19 17:30N 51°23' E 004°09'714.0
2018-May-19 17:00N 51°26' E 003°59'816.2
2018-May-19 16:30N 51°21' E 003°49'814.8
2018-May-19 15:58N 51°25' E 003°38'610.9
2018-May-19 15:27N 51°28' E 003°31'714.4
2018-May-19 14:59N 51°34' E 003°25'815.5
2018-May-19 14:30N 51°40' E 003°19'612.4
2018-May-19 13:59N 51°46' E 003°15'3 6.3
2018-May-19 13:28N 51°49' E 003°16'1211.5
2018-May-19 12:25N 52°01' E 003°19'511.1
2018-May-19 12:00N 52°02' E 003°27'611.5
2018-May-19 11:29N 52°03' E 003°36'511.5
2018-May-19 11:01N 52°03' E 003°45'611.2
2018-May-19 10:30N 52°02' E 003°54'611.5
2018-May-19 10:00N 51°60' E 004°03'713.8
2018-May-19 09:30N 51°56' E 004°12'511.0
2018-May-19 09:01N 51°54' E 004°20'3 6.3
2018-May-19 08:31N 51°53' E 004°25'0 0.1
2018-May-19 07:58N 51°53' E 004°25'0 0.0
2018-May-19 07:28N 51°53' E 004°25'0 0.0
2018-May-19 06:58N 51°53' E 004°25'0 0.0
2018-May-19 06:30N 51°53' E 004°25'0 0.0
2018-May-19 06:00N 51°53' E 004°25'0 0.0
2018-May-19 05:30N 51°53' E 004°25'0 0.0
2018-May-19 05:00N 51°53' E 004°25'1 1.6
2018-May-19 04:30N 51°53' E 004°24'1 2.4
2018-May-19 04:00N 51°54' E 004°26'0 0.0
2018-May-19 03:29N 51°54' E 004°26'0 0.0
2018-May-19 02:59N 51°54' E 004°26'0 0.0
2018-May-19 02:29N 51°54' E 004°26'0 0.0
2018-May-19 01:59N 51°54' E 004°26'0 0.0
2018-May-19 01:28N 51°54' E 004°26'0 0.0
2018-May-19 00:58N 51°54' E 004°26'0 0.0
2018-May-19 00:28N 51°54' E 004°26'0 0.0
2018-May-18 23:58N 51°54' E 004°26'0 0.0
2018-May-18 23:28N 51°54' E 004°26'0 0.0
2018-May-18 23:00N 51°54' E 004°26'0 0.0
2018-May-18 22:30N 51°54' E 004°26'0 0.0
2018-May-18 22:00N 51°54' E 004°26'0 0.0
2018-May-18 21:30N 51°54' E 004°26'0 0.0
2018-May-18 20:59N 51°54' E 004°26'0 0.0
2018-May-18 20:29N 51°54' E 004°26'0 0.0
2018-May-18 19:59N 51°54' E 004°26'0 0.0
2018-May-18 19:29N 51°54' E 004°26'0 0.0
2018-May-18 18:59N 51°54' E 004°26'0 0.0
2018-May-18 18:28N 51°54' E 004°26'0 0.0
2018-May-18 17:58N 51°54' E 004°26'0 0.0
2018-May-18 17:28N 51°54' E 004°26'0 0.0
2018-May-18 16:58N 51°54' E 004°26'0 0.0
2018-May-18 16:31N 51°54' E 004°26'0 0.0
2018-May-18 16:00N 51°54' E 004°26'0 0.0
2018-May-18 15:30N 51°54' E 004°26'0 0.0
2018-May-18 15:00N 51°54' E 004°26'0 0.0
2018-May-18 14:30N 51°54' E 004°26'0 0.0
2018-May-18 13:59N 51°54' E 004°26'0 0.0
2018-May-18 13:30N 51°54' E 004°26'0 1.0
2018-May-18 13:00N 51°54' E 004°26'4 8.5
2018-May-18 12:30N 51°54' E 004°19'611.3
2018-May-18 12:00N 51°57' E 004°11'713.6
2018-May-18 11:30N 51°60' E 004°01'714.1
2018-May-18 11:00N 51°59' E 003°50'2 4.1
2018-May-18 10:30N 51°57' E 003°48'0 0.2
2018-May-18 10:00N 51°57' E 003°48'0 0.0
2018-May-18 09:30N 51°57' E 003°48'0 0.0
2018-May-18 08:57N 51°57' E 003°48'0 0.1
2018-May-18 08:26N 51°57' E 003°48'0 0.0
2018-May-18 07:53N 51°57' E 003°48'0 0.0
2018-May-18 07:29N 51°57' E 003°48'0 0.0
2018-May-18 06:59N 51°57' E 003°48'0 0.1
2018-May-18 06:16N 51°57' E 003°48'0 0.0
2018-May-18 05:49N 51°57' E 003°48'0 0.0
2018-May-18 05:10N 51°57' E 003°48'0 0.0
2018-May-18 04:58N 51°57' E 003°48'0 0.0
2018-May-18 04:28N 51°57' E 003°48'0 0.0
2018-May-18 03:57N 51°57' E 003°48'0 0.0
2018-May-18 03:30N 51°57' E 003°48'0 0.1
2018-May-18 03:00N 51°57' E 003°48'0 0.1
2018-May-18 02:30N 51°57' E 003°48'0 0.1
2018-May-18 01:54N 51°57' E 003°48'0 0.0
2018-May-18 01:20N 51°57' E 003°48'0 0.0
2018-May-18 00:56N 51°57' E 003°48'0 0.0
2018-May-18 00:16N 51°57' E 003°48'0 0.0
2018-May-17 23:58N 51°57' E 003°48'0 0.0
2018-May-17 23:28N 51°57' E 003°48'0 0.0
2018-May-17 23:00N 51°57' E 003°48'0 0.0
2018-May-17 22:18N 51°57' E 003°48'0 0.0
2018-May-17 22:00N 51°57' E 003°48'0 0.0
2018-May-17 21:30N 51°57' E 003°48'0 0.0
2018-May-17 21:00N 51°57' E 003°48'0 0.0
2018-May-17 20:29N 51°57' E 003°48'0 0.0
2018-May-17 19:56N 51°57' E 003°48'0 0.0
2018-May-17 19:26N 51°57' E 003°48'0 0.0
2018-May-17 18:44N 51°57' E 003°48'0 0.0
2018-May-17 18:22N 51°57' E 003°48'0 0.0
2018-May-17 17:58N 51°57' E 003°48'0 0.1
2018-May-17 17:28N 51°57' E 003°48'0 0.1
2018-May-17 16:55N 51°57' E 003°48'0 0.1
2018-May-17 16:28N 51°57' E 003°48'0 0.0
2018-May-17 15:57N 51°57' E 003°48'0 0.0
2018-May-17 15:30N 51°57' E 003°48'0 0.0
2018-May-17 14:51N 51°57' E 003°48'0 0.2
2018-May-17 14:30N 51°57' E 003°48'0 0.1
2018-May-17 14:00N 51°57' E 003°48'0 0.0
2018-May-17 13:26N 51°57' E 003°48'0 0.0
2018-May-17 12:59N 51°57' E 003°48'0 0.0
2018-May-17 12:29N 51°57' E 003°48'0 0.0
2018-May-17 11:59N 51°57' E 003°48'0 0.0
2018-May-17 11:28N 51°57' E 003°48'0 0.0
2018-May-17 10:58N 51°57' E 003°48'0 0.0
2018-May-17 10:25N 51°57' E 003°48'0 0.0
2018-May-17 09:58N 51°57' E 003°48'0 0.0
2018-May-17 09:25N 51°57' E 003°48'0 0.0
2018-May-17 08:54N 51°57' E 003°48'0 0.0
2018-May-17 08:27N 51°57' E 003°48'0 0.0
2018-May-17 08:00N 51°57' E 003°48'  

Dump ship's entire track history